Time;durP1;ratioP1;P1;durP2;ratioP2;P2;SDS_P1;SDS_P2;PMS_P1;PMS_P2;Temp;Humidity;BMP_temperature;BMP_pressure;BME280_temperature;BME280_humidity;BME280_pressure;Samples;Min_cycle;Max_cycle;Signal;HPM_P1;HPM_P2
2021/03/25 06:00:32;;;;;;;0.00;0.00;;;;;;;;;;5126936;27;20390;-62
2021/03/25 06:03:12;;;;;;;0.00;0.00;;;;;;;;;;5117686;28;20505;-64
2021/03/25 06:05:38;;;;;;;0.00;0.00;;;;;;;;;;5109497;28;20024;-65
2021/03/25 06:08:23;;;;;;;0.00;0.00;;;;;;;;;;5103667;28;20028;-65
2021/03/25 06:10:57;;;;;;;0.00;0.00;;;;;;;;;;5107500;28;20235;-65
2021/03/25 06:13:29;;;;;;;0.00;0.00;;;;;;;;;;5113088;28;20027;-64
2021/03/25 06:16:04;;;;;;;0.00;0.00;;;;;;;;;;5111528;28;20031;-65
2021/03/25 06:18:51;;;;;;;0.00;0.00;;;;;;;;;;5109544;28;20080;-65
2021/03/25 06:21:23;;;;;;;0.00;0.00;;;;;;;;;;5108975;28;20035;-65
2021/03/25 06:23:58;;;;;;;0.00;0.00;;;;;;;;;;5109365;28;20023;-64
2021/03/25 06:26:24;;;;;;;;;;;;;;;;;;5108579;28;20102;-65
2021/03/25 06:28:51;;;;;;;0.00;0.00;;;;;;;;;;5106922;28;19932;-65
2021/03/25 06:31:41;;;;;;;0.00;0.00;;;;;;;;;;5111714;28;20337;-65
2021/03/25 06:34:20;;;;;;;0.00;0.00;;;;;;;;;;5101996;28;20125;-65
2021/03/25 06:36:49;;;;;;;0.00;0.00;;;;;;;;;;5109005;28;20039;-65
2021/03/25 06:39:27;;;;;;;0.00;0.00;;;;;;;;;;5108896;28;20459;-65
2021/03/25 06:42:02;;;;;;;0.00;0.00;;;;;;;;;;5108903;28;20032;-64
2021/03/25 06:44:35;;;;;;;0.00;0.00;;;;;;;;;;5110144;28;20023;-65
2021/03/25 06:47:05;;;;;;;0.00;0.00;;;;;;;;;;5088094;28;20020;-65
2021/03/25 06:49:38;;;;;;;0.00;0.00;;;;;;;;;;5109317;28;20047;-63
2021/03/25 06:52:23;;;;;;;0.00;0.00;;;;;;;;;;5109467;28;20028;-64
2021/03/25 06:54:49;;;;;;;0.00;0.00;;;;;;;;;;5107862;28;20435;-65
2021/03/25 06:57:18;;;;;;;0.00;0.00;;;;;;;;;;5107935;28;20409;-65
2021/03/25 06:59:45;;;;;;;0.00;0.00;;;;;;;;;;5099373;28;20594;-65
2021/03/25 07:02:24;;;;;;;0.00;0.00;;;;;;;;;;5086800;28;20017;-65
2021/03/25 07:04:52;;;;;;;0.08;0.08;;;;;;;;;;5089604;28;20554;-62
2021/03/25 07:07:44;;;;;;;0.00;0.00;;;;;;;;;;5088961;28;20114;-64
2021/03/25 07:10:12;;;;;;;0.00;0.00;;;;;;;;;;5086909;28;20571;-64
2021/03/25 07:12:40;;;;;;;0.00;0.00;;;;;;;;;;5086519;28;20016;-65
2021/03/25 07:15:08;;;;;;;0.10;0.10;;;;;;;;;;5089882;28;20059;-66
2021/03/25 07:17:39;;;;;;;0.05;0.05;;;;;;;;;;5089394;28;20039;-66
2021/03/25 07:20:19;;;;;;;0.00;0.00;;;;;;;;;;5088250;28;20082;-65
2021/03/25 07:22:58;;;;;;;0.00;0.00;;;;;;;;;;5091836;28;20028;-65
2021/03/25 07:25:24;;;;;;;0.00;0.00;;;;;;;;;;5092974;28;20070;-64
2021/03/25 07:27:51;;;;;;;0.00;0.00;;;;;;;;;;5089649;28;20032;-65
2021/03/25 07:30:19;;;;;;;0.00;0.00;;;;;;;;;;5080129;28;20067;-64
2021/03/25 07:33:06;;;;;;;0.00;0.00;;;;;;;;;;5085624;28;20020;-65
2021/03/25 07:35:39;;;;;;;0.00;0.00;;;;;;;;;;5081602;28;20554;-65
2021/03/25 07:38:18;;;;;;;0.00;0.00;;;;;;;;;;5085004;28;20028;-65
2021/03/25 07:40:44;;;;;;;0.00;0.00;;;;;;;;;;5084171;28;20032;-66
2021/03/25 07:43:19;;;;;;;0.15;0.15;;;;;;;;;;5087265;28;20020;-65
2021/03/25 07:45:46;;;;;;;0.00;0.00;;;;;;;;;;5084686;28;20602;-65
2021/03/25 07:48:17;;;;;;;0.15;0.15;;;;;;;;;;5082979;28;20086;-65
2021/03/25 07:50:44;;;;;;;0.25;0.13;;;;;;;;;;5084927;28;20605;-65
2021/03/25 07:53:16;;;;;;;0.20;0.20;;;;;;;;;;5086159;28;20100;-64
2021/03/25 07:55:43;;;;;;;0.00;0.00;;;;;;;;;;5088513;28;20042;-65
2021/03/25 07:58:16;;;;;;;0.10;0.10;;;;;;;;;;5082859;28;20036;-66
2021/03/25 08:00:42;;;;;;;0.00;0.00;;;;;;;;;;5084051;28;20036;-65
2021/03/25 08:03:10;;;;;;;0.20;0.20;;;;;;;;;;5082727;28;20028;-65
2021/03/25 08:05:36;;;;;;;0.95;0.52;;;;;;;;;;5086526;28;20020;-65
2021/03/25 08:08:21;;;;;;;0.00;0.00;;;;;;;;;;5084322;28;20049;-65
2021/03/25 08:10:48;;;;;;;0.00;0.00;;;;;;;;;;5082778;28;20031;-65
2021/03/25 08:13:25;;;;;;;0.00;0.00;;;;;;;;;;5085151;28;20385;-65
2021/03/25 08:16:08;;;;;;;0.00;0.00;;;;;;;;;;5083343;28;20505;-65
2021/03/25 08:18:44;;;;;;;0.00;0.00;;;;;;;;;;5081779;28;20501;-65
2021/03/25 08:21:19;;;;;;;0.00;0.00;;;;;;;;;;5082995;28;20031;-66
2021/03/25 08:24:08;;;;;;;0.00;0.00;;;;;;;;;;5081581;28;20202;-65
2021/03/25 08:26:53;;;;;;;0.00;0.00;;;;;;;;;;5085329;28;20058;-66
2021/03/25 08:29:21;;;;;;;0.08;0.08;;;;;;;;;;5085149;28;20493;-65
2021/03/25 08:32:02;;;;;;;0.00;0.00;;;;;;;;;;5082428;28;20024;-66
2021/03/25 08:34:28;;;;;;;7.65;1.17;;;;;;;;;;5084455;28;20028;-65
2021/03/25 08:37:18;;;;;;;0.68;0.50;;;;;;;;;;5083464;28;20477;-65
2021/03/25 08:39:44;;;;;;;0.00;0.00;;;;;;;;;;5006773;28;20049;-65
2021/03/25 08:42:33;;;;;;;0.20;0.10;;;;;;;;;;5004608;28;20049;-66
2021/03/25 08:45:08;;;;;;;0.00;0.00;;;;;;;;;;4995109;28;20088;-64
2021/03/25 08:47:53;;;;;;;0.00;0.00;;;;;;;;;;5000957;28;20486;-65
2021/03/25 08:50:31;;;;;;;0.47;0.25;;;;;;;;;;5002222;28;20077;-65
2021/03/25 08:53:01;;;;;;;0.40;0.22;;;;;;;;;;5005896;28;20029;-65
2021/03/25 08:55:35;;;;;;;0.20;0.20;;;;;;;;;;5002612;28;20100;-65
2021/03/25 08:58:06;;;;;;;0.00;0.00;;;;;;;;;;5001759;28;20050;-64
2021/03/25 09:00:34;;;;;;;0.00;0.00;;;;;;;;;;5001469;28;20037;-65
2021/03/25 09:03:03;;;;;;;0.00;0.00;;;;;;;;;;5000395;28;20030;-65
2021/03/25 09:05:32;;;;;;;0.00;0.00;;;;;;;;;;5001348;28;20073;-63
2021/03/25 09:07:59;;;;;;;0.00;0.00;;;;;;;;;;5002110;28;20031;-64
2021/03/25 09:10:28;;;;;;;0.10;0.10;;;;;;;;;;5000238;28;20096;-64
2021/03/25 09:12:55;;;;;;;0.03;0.03;;;;;;;;;;5000974;28;20423;-65
2021/03/25 09:15:21;;;;;;;0.65;0.10;;;;;;;;;;5005643;28;20385;-65
2021/03/25 09:17:54;;;;;;;1.05;1.02;;;;;;;;;;5077313;28;20135;-65
2021/03/25 09:20:28;;;;;;;0.52;0.20;;;;;;;;;;5084758;28;20397;-64
2021/03/25 09:22:59;;;;;;;0.00;0.00;;;;;;;;;;5084452;28;20027;-64
2021/03/25 09:25:28;;;;;;;0.00;0.00;;;;;;;;;;5084401;28;20459;-65
2021/03/25 09:28:03;;;;;;;1.67;0.52;;;;;;;;;;5083533;28;20035;-65
2021/03/25 09:30:41;;;;;;;0.10;0.10;;;;;;;;;;5081781;28;20020;-62
2021/03/25 09:33:46;;;;;;;1.30;0.10;;;;;;;;;;5083125;28;20017;-65
2021/03/25 09:36:18;;;;;;;1.95;0.85;;;;;;;;;;5039206;28;20520;-65
2021/03/25 09:38:50;;;;;;;0.20;0.20;;;;;;;;;;5048223;28;20041;-65
2021/03/25 09:41:17;;;;;;;1.80;0.68;;;;;;;;;;5028977;28;20051;-65
2021/03/25 09:43:44;;;;;;;1.65;0.40;;;;;;;;;;5042588;28;20021;-65
2021/03/25 09:46:49;;;;;;;0.20;0.20;;;;;;;;;;5040824;28;20025;-65
2021/03/25 09:49:35;;;;;;;0.65;0.13;;;;;;;;;;4975168;28;20496;-64
2021/03/25 09:52:07;;;;;;;0.10;0.10;;;;;;;;;;4974367;28;20027;-64
2021/03/25 09:54:35;;;;;;;0.10;0.10;;;;;;;;;;4976986;28;20449;-65
2021/03/25 09:57:19;;;;;;;0.43;0.28;;;;;;;;;;4979376;28;20026;-65
2021/03/25 09:59:46;;;;;;;0.35;0.35;;;;;;;;;;4978780;28;20077;-63
2021/03/25 10:02:12;;;;;;;0.13;0.13;;;;;;;;;;4975419;28;20034;-66
2021/03/25 10:04:39;;;;;;;0.20;0.20;;;;;;;;;;4978258;28;20045;-65
2021/03/25 10:07:05;;;;;;;1.20;0.20;;;;;;;;;;5010565;28;20024;-65
2021/03/25 10:09:49;;;;;;;0.10;0.10;;;;;;;;;;5036891;28;20034;-63
2021/03/25 10:12:34;;;;;;;3.08;0.30;;;;;;;;;;5018008;28;20040;-64
2021/03/25 10:15:00;;;;;;;0.00;0.00;;;;;;;;;;5038917;28;20055;-62
2021/03/25 10:17:43;;;;;;;0.10;0.10;;;;;;;;;;5029536;28;20545;-65
2021/03/25 10:20:11;;;;;;;4.40;0.38;;;;;;;;;;5058294;28;20084;-65
2021/03/25 10:22:37;;;;;;;0.35;0.35;;;;;;;;;;5083200;28;20021;-65
2021/03/25 10:25:06;;;;;;;2.45;0.50;;;;;;;;;;5082059;28;20032;-65
2021/03/25 10:27:32;;;;;;;1.65;0.85;;;;;;;;;;5082257;28;20424;-65
2021/03/25 10:30:02;;;;;;;0.47;0.30;;;;;;;;;;5084593;28;20028;-65
2021/03/25 10:32:31;;;;;;;2.00;0.40;;;;;;;;;;5083888;28;20103;-65
2021/03/25 10:34:59;;;;;;;0.10;0.10;;;;;;;;;;5084926;28;20477;-65
2021/03/25 10:37:37;;;;;;;0.35;0.32;;;;;;;;;;5086977;28;20091;-65
2021/03/25 10:40:07;;;;;;;1.38;0.20;;;;;;;;;;5086057;28;20063;-64
2021/03/25 10:42:38;;;;;;;0.10;0.10;;;;;;;;;;5085391;28;20074;-64
2021/03/25 10:45:21;;;;;;;4.82;0.63;;;;;;;;;;5085734;28;20038;-66
2021/03/25 10:47:50;;;;;;;0.30;0.30;;;;;;;;;;5086810;28;20028;-65
2021/03/25 10:50:19;;;;;;;0.82;0.30;;;;;;;;;;5089123;28;20052;-66
2021/03/25 10:52:45;;;;;;;1.85;0.30;;;;;;;;;;5088195;28;20025;-64
2021/03/25 10:55:19;;;;;;;0.15;0.15;;;;;;;;;;5086120;28;20089;-65
2021/03/25 10:57:49;;;;;;;0.10;0.10;;;;;;;;;;5085635;28;20028;-63
2021/03/25 11:00:22;;;;;;;0.25;0.10;;;;;;;;;;5088198;28;20040;-65
2021/03/25 11:02:48;;;;;;;1.25;0.35;;;;;;;;;;5088615;28;20389;-65
2021/03/25 11:05:14;;;;;;;1.13;0.40;;;;;;;;;;5086576;28;20032;-64
2021/03/25 11:07:45;;;;;;;0.85;0.40;;;;;;;;;;5083132;28;20032;-65
2021/03/25 11:10:22;;;;;;;0.20;0.20;;;;;;;;;;5078777;28;20043;-65
2021/03/25 11:13:09;;;;;;;1.35;0.25;;;;;;;;;;5091723;28;20028;-65
2021/03/25 11:15:36;;;;;;;0.75;0.30;;;;;;;;;;5071082;28;20040;-64
2021/03/25 11:18:19;;;;;;;0.00;0.00;;;;;;;;;;5092255;28;20016;-65
2021/03/25 11:20:46;;;;;;;8.05;0.90;;;;;;;;;;5085823;28;20099;-64
2021/03/25 11:23:14;;;;;;;0.00;0.00;;;;;;;;;;5087211;28;20442;-66
2021/03/25 11:25:40;;;;;;;0.73;0.25;;;;;;;;;;5088316;28;20031;-66
2021/03/25 11:28:08;;;;;;;1.60;1.38;;;;;;;;;;5082684;28;20058;-65
2021/03/25 11:30:36;;;;;;;8.02;0.93;;;;;;;;;;5089317;28;20020;-66
2021/03/25 11:33:20;;;;;;;0.68;0.55;;;;;;;;;;5092371;28;20016;-65
2021/03/25 11:35:46;;;;;;;1.38;0.50;;;;;;;;;;5091146;28;20035;-66
2021/03/25 11:38:30;;;;;;;0.10;0.10;;;;;;;;;;5088813;28;20028;-66
2021/03/25 11:41:01;;;;;;;0.30;0.30;;;;;;;;;;5088818;28;20036;-66
2021/03/25 11:43:44;;;;;;;0.20;0.20;;;;;;;;;;5088884;28;20464;-66
2021/03/25 11:46:11;;;;;;;1.85;0.25;;;;;;;;;;5088971;28;20023;-66
2021/03/25 11:48:38;;;;;;;0.20;0.20;;;;;;;;;;5083769;28;20362;-65
2021/03/25 11:51:16;;;;;;;0.30;0.30;;;;;;;;;;5082227;28;20331;-65
2021/03/25 11:53:44;;;;;;;5.60;0.85;;;;;;;;;;5082322;28;20103;-65
2021/03/25 11:56:19;;;;;;;2.00;0.57;;;;;;;;;;5087591;28;20483;-65
2021/03/25 11:58:45;;;;;;;;;;;;;;;;;;5089183;28;20071;-65
2021/03/25 12:01:11;;;;;;;;;;;;;;;;;;5083360;28;19939;-64
2021/03/25 12:03:55;;;;;;;0.47;0.20;;;;;;;;;;5085279;28;20490;-66
2021/03/25 12:06:23;;;;;;;0.20;0.20;;;;;;;;;;5088943;28;20118;-65
2021/03/25 12:09:04;;;;;;;0.10;0.10;;;;;;;;;;5089734;28;20496;-66
2021/03/25 12:11:33;;;;;;;2.03;0.40;;;;;;;;;;5087317;28;20077;-66
2021/03/25 12:13:59;;;;;;;0.10;0.10;;;;;;;;;;5079350;28;20052;-64
2021/03/25 12:16:25;;;;;;;0.88;0.40;;;;;;;;;;5080473;28;20486;-66
2021/03/25 12:18:51;;;;;;;2.28;0.90;;;;;;;;;;5083394;28;21981;-65
2021/03/25 12:21:17;;;;;;;1.42;0.93;;;;;;;;;;5089843;28;20058;-65
2021/03/25 12:23:43;;;;;;;8.35;0.63;;;;;;;;;;5091619;28;20420;-66
2021/03/25 12:26:15;;;;;;;0.10;0.10;;;;;;;;;;5088162;28;20036;-66
2021/03/25 12:28:42;;;;;;;0.10;0.10;;;;;;;;;;5089568;28;20032;-65
2021/03/25 12:31:08;;;;;;;0.15;0.15;;;;;;;;;;5082885;28;20493;-65
2021/03/25 12:33:37;;;;;;;0.10;0.10;;;;;;;;;;5082564;28;20393;-65
2021/03/25 12:36:05;;;;;;;0.13;0.13;;;;;;;;;;5081696;28;20035;-66
2021/03/25 12:38:32;;;;;;;1.33;0.90;;;;;;;;;;5083289;28;20401;-65
2021/03/25 12:40:58;;;;;;;1.25;0.43;;;;;;;;;;5082328;28;20392;-65
2021/03/25 12:43:25;;;;;;;0.20;0.20;;;;;;;;;;5083726;28;20032;-64
2021/03/25 12:45:56;;;;;;;0.70;0.38;;;;;;;;;;5083118;28;20541;-65
2021/03/25 12:48:23;;;;;;;0.10;0.10;;;;;;;;;;5082733;28;20036;-66
2021/03/25 12:50:50;;;;;;;0.10;0.10;;;;;;;;;;5084872;28;20021;-65
2021/03/25 12:53:17;;;;;;;1.80;0.63;;;;;;;;;;5089352;28;20020;-66
2021/03/25 12:55:43;;;;;;;0.10;0.10;;;;;;;;;;5089132;28;20500;-65
2021/03/25 12:58:17;;;;;;;0.00;0.00;;;;;;;;;;5087039;28;20043;-66
2021/03/25 13:00:44;;;;;;;0.10;0.10;;;;;;;;;;5085711;28;20386;-65
2021/03/25 13:03:10;;;;;;;2.38;0.32;;;;;;;;;;5078461;28;20051;-65
2021/03/25 13:05:36;;;;;;;0.65;0.45;;;;;;;;;;5088694;28;20375;-66
2021/03/25 13:08:02;;;;;;;2.25;0.77;;;;;;;;;;5087858;28;20017;-65
2021/03/25 13:10:30;;;;;;;0.10;0.10;;;;;;;;;;5087788;28;20534;-65
2021/03/25 13:12:59;;;;;;;0.40;0.20;;;;;;;;;;5088353;28;20102;-66
2021/03/25 13:15:26;;;;;;;1.60;0.50;;;;;;;;;;5089054;28;20028;-66
2021/03/25 13:17:52;;;;;;;0.10;0.10;;;;;;;;;;5091211;28;20071;-65
2021/03/25 13:20:22;;;;;;;0.10;0.10;;;;;;;;;;5088676;28;20115;-66
2021/03/25 13:22:48;;;;;;;0.20;0.20;;;;;;;;;;5087408;28;20443;-63
2021/03/25 13:25:20;;;;;;;0.68;0.20;;;;;;;;;;5087432;28;20074;-66
2021/03/25 13:27:46;;;;;;;0.55;0.10;;;;;;;;;;5087504;28;20031;-65
2021/03/25 13:30:12;;;;;;;6.18;0.95;;;;;;;;;;5089393;28;20058;-65
2021/03/25 13:32:39;;;;;;;0.10;0.10;;;;;;;;;;5090677;28;20084;-65
2021/03/25 13:35:06;;;;;;;0.20;0.10;;;;;;;;;;5082406;28;20103;-66
2021/03/25 13:37:32;;;;;;;0.32;0.20;;;;;;;;;;5083487;28;20489;-65
2021/03/25 13:39:58;;;;;;;1.98;0.55;;;;;;;;;;5079859;28;20036;-64
2021/03/25 13:42:24;;;;;;;0.20;0.20;;;;;;;;;;5076939;28;20040;-65
2021/03/25 13:44:50;;;;;;;3.60;0.55;;;;;;;;;;5077964;28;20017;-65
2021/03/25 13:47:16;;;;;;;1.92;0.50;;;;;;;;;;5084364;28;20031;-65
2021/03/25 13:49:42;;;;;;;0.90;0.90;;;;;;;;;;5084779;28;20477;-64
2021/03/25 13:52:08;;;;;;;0.15;0.15;;;;;;;;;;5082025;28;20032;-65
2021/03/25 13:54:34;;;;;;;0.45;0.20;;;;;;;;;;5082465;28;20599;-64
2021/03/25 13:57:01;;;;;;;0.20;0.10;;;;;;;;;;5082528;28;20107;-64
2021/03/25 13:59:27;;;;;;;0.10;0.10;;;;;;;;;;5082576;28;20055;-64
2021/03/25 14:01:53;;;;;;;0.85;0.85;;;;;;;;;;5084671;28;20028;-65
2021/03/25 14:04:19;;;;;;;0.10;0.10;;;;;;;;;;5082974;28;20119;-65
2021/03/25 14:06:46;;;;;;;2.22;0.55;;;;;;;;;;5081480;28;20027;-66
2021/03/25 14:09:12;;;;;;;0.10;0.10;;;;;;;;;;5081973;28;20069;-65
2021/03/25 14:11:39;;;;;;;2.05;0.85;;;;;;;;;;5087778;28;20453;-63
2021/03/25 14:14:05;;;;;;;3.20;0.57;;;;;;;;;;5089651;28;20020;-65
2021/03/25 14:16:31;;;;;;;0.10;0.10;;;;;;;;;;5089569;28;20027;-66
2021/03/25 14:18:58;;;;;;;2.03;0.68;;;;;;;;;;5086303;28;20111;-65
2021/03/25 14:21:25;;;;;;;9.20;1.08;;;;;;;;;;5085900;28;20021;-64
2021/03/25 14:23:51;;;;;;;2.83;1.25;;;;;;;;;;5088480;28;20059;-65
2021/03/25 14:26:18;;;;;;;1.85;0.30;;;;;;;;;;5089229;28;20155;-65
2021/03/25 14:28:44;;;;;;;0.60;0.10;;;;;;;;;;5088059;28;20030;-65
2021/03/25 14:31:10;;;;;;;5.47;0.17;;;;;;;;;;5085595;28;20028;-65
2021/03/25 14:33:37;;;;;;;0.10;0.10;;;;;;;;;;5081031;28;20043;-66
2021/03/25 14:36:03;;;;;;;0.25;0.20;;;;;;;;;;5084898;28;20032;-64
2021/03/25 14:38:30;;;;;;;0.70;0.40;;;;;;;;;;5085244;28;20152;-65
2021/03/25 14:40:56;;;;;;;0.47;0.47;;;;;;;;;;5085576;28;20456;-65
2021/03/25 14:43:23;;;;;;;0.15;0.15;;;;;;;;;;5084194;28;20402;-66
2021/03/25 14:45:50;;;;;;;0.60;0.60;;;;;;;;;;5084091;28;20040;-66
2021/03/25 14:48:16;;;;;;;0.70;0.35;;;;;;;;;;5081717;28;20066;-65
2021/03/25 14:50:42;;;;;;;0.32;0.22;;;;;;;;;;5086260;28;20059;-64
2021/03/25 14:53:09;;;;;;;1.45;0.25;;;;;;;;;;5085958;28;20028;-66
2021/03/25 14:55:36;;;;;;;0.10;0.10;;;;;;;;;;5085513;28;20492;-66
2021/03/25 14:58:03;;;;;;;0.10;0.10;;;;;;;;;;5083701;28;20075;-66
2021/03/25 15:00:31;;;;;;;1.05;0.32;;;;;;;;;;5083068;28;20067;-65
2021/03/25 15:02:57;;;;;;;0.57;0.20;;;;;;;;;;5084143;28;20025;-66
2021/03/25 15:05:24;;;;;;;0.43;0.20;;;;;;;;;;5085067;28;20088;-66
2021/03/25 15:07:51;;;;;;;0.10;0.10;;;;;;;;;;5085295;28;20028;-65
2021/03/25 15:10:20;;;;;;;0.10;0.10;;;;;;;;;;5082444;28;20042;-65
2021/03/25 15:12:46;;;;;;;0.38;0.20;;;;;;;;;;5084562;28;20505;-65
2021/03/25 15:15:17;;;;;;;3.42;0.32;;;;;;;;;;5082269;28;20035;-65
2021/03/25 15:17:43;;;;;;;3.13;0.95;;;;;;;;;;5084137;28;20025;-65
2021/03/25 15:20:11;;;;;;;3.47;0.70;;;;;;;;;;5085850;28;20161;-66
2021/03/25 15:22:37;;;;;;;0.32;0.32;;;;;;;;;;5085068;28;20486;-67
2021/03/25 15:25:08;;;;;;;0.17;0.10;;;;;;;;;;5082025;28;20110;-65
2021/03/25 15:27:34;;;;;;;6.82;0.50;;;;;;;;;;5084488;28;20493;-66
2021/03/25 15:30:00;;;;;;;0.10;0.10;;;;;;;;;;5086464;28;20028;-65
2021/03/25 15:32:26;;;;;;;0.25;0.25;;;;;;;;;;5085353;28;20417;-65
2021/03/25 15:34:52;;;;;;;8.93;0.85;;;;;;;;;;5087235;28;20043;-65
2021/03/25 15:37:18;;;;;;;0.28;0.10;;;;;;;;;;5086036;28;20024;-65
2021/03/25 15:39:44;;;;;;;1.98;0.38;;;;;;;;;;5084800;28;20453;-65
2021/03/25 15:42:11;;;;;;;1.45;0.50;;;;;;;;;;5085705;28;20020;-63
2021/03/25 15:44:37;;;;;;;3.53;0.57;;;;;;;;;;5085826;28;20039;-65
2021/03/25 15:47:03;;;;;;;0.32;0.32;;;;;;;;;;5083444;28;20096;-65
2021/03/25 15:49:29;;;;;;;5.28;1.25;;;;;;;;;;5083207;28;20028;-65
2021/03/25 15:51:55;;;;;;;1.58;0.73;;;;;;;;;;5086019;28;20067;-65
2021/03/25 15:54:22;;;;;;;0.10;0.10;;;;;;;;;;5082666;28;20104;-65
2021/03/25 15:56:48;;;;;;;1.27;0.50;;;;;;;;;;5085688;28;20071;-63
2021/03/25 15:59:14;;;;;;;0.20;0.20;;;;;;;;;;5086829;28;20501;-66
2021/03/25 16:01:40;;;;;;;0.00;0.00;;;;;;;;;;5086785;28;20405;-65
2021/03/25 16:04:06;;;;;;;0.75;0.25;;;;;;;;;;5085034;28;20477;-66
2021/03/25 16:06:32;;;;;;;2.13;0.93;;;;;;;;;;5081209;28;20024;-64
2021/03/25 16:08:58;;;;;;;8.52;1.00;;;;;;;;;;5086073;28;20059;-66
2021/03/25 16:11:28;;;;;;;0.88;0.22;;;;;;;;;;5084895;28;20621;-66
2021/03/25 16:13:54;;;;;;;0.50;0.50;;;;;;;;;;5083342;28;20032;-65
2021/03/25 16:16:20;;;;;;;2.63;0.30;;;;;;;;;;5084177;28;20501;-65
2021/03/25 16:18:47;;;;;;;0.17;0.15;;;;;;;;;;5085000;28;20438;-65
2021/03/25 16:21:13;;;;;;;0.52;0.28;;;;;;;;;;5085884;28;20024;-63
2021/03/25 16:23:41;;;;;;;1.13;0.65;;;;;;;;;;5088655;28;20151;-63
2021/03/25 16:26:11;;;;;;;0.10;0.10;;;;;;;;;;5086187;28;20026;-62
2021/03/25 16:28:37;;;;;;;5.03;0.73;;;;;;;;;;5087718;28;20057;-62
2021/03/25 16:31:04;;;;;;;11.13;2.38;;;;;;;;;;5085833;28;20405;-64
2021/03/25 16:33:30;;;;;;;4.53;1.70;;;;;;;;;;5083090;28;20051;-62
2021/03/25 16:36:00;;;;;;;0.40;0.30;;;;;;;;;;5085578;28;20025;-63
2021/03/25 16:38:26;;;;;;;0.30;0.30;;;;;;;;;;5081125;28;20067;-63
2021/03/25 16:40:53;;;;;;;4.13;0.47;;;;;;;;;;5081952;28;20500;-62
2021/03/25 16:43:21;;;;;;;0.00;0.00;;;;;;;;;;5083644;28;20127;-62
2021/03/25 16:45:48;;;;;;;1.23;1.00;;;;;;;;;;5080758;28;20501;-62
2021/03/25 16:48:16;;;;;;;1.33;0.20;;;;;;;;;;5080356;28;20021;-63
2021/03/25 16:50:43;;;;;;;0.20;0.20;;;;;;;;;;5083242;28;20379;-63
2021/03/25 16:53:11;;;;;;;0.50;0.50;;;;;;;;;;5086786;28;20059;-63
2021/03/25 16:55:38;;;;;;;0.47;0.30;;;;;;;;;;5084164;28;20028;-63
2021/03/25 16:58:05;;;;;;;0.25;0.25;;;;;;;;;;5082146;28;20127;-62
2021/03/25 17:00:33;;;;;;;0.10;0.10;;;;;;;;;;5080220;28;20114;-63
2021/03/25 17:03:00;;;;;;;0.10;0.10;;;;;;;;;;5086764;28;20023;-63
2021/03/25 17:05:27;;;;;;;0.15;0.13;;;;;;;;;;5080576;28;20028;-62
2021/03/25 17:07:53;;;;;;;0.00;0.00;;;;;;;;;;5081451;28;20129;-62
2021/03/25 17:10:21;;;;;;;0.10;0.10;;;;;;;;;;5086299;28;20028;-63
2021/03/25 17:12:47;;;;;;;0.00;0.00;;;;;;;;;;5085721;28;20054;-62
2021/03/25 17:15:14;;;;;;;1.02;0.63;;;;;;;;;;5088576;28;20146;-62
2021/03/25 17:17:40;;;;;;;0.30;0.30;;;;;;;;;;5087628;28;20016;-62
2021/03/25 17:20:08;;;;;;;2.38;0.90;;;;;;;;;;5084369;28;20036;-62
2021/03/25 17:22:34;;;;;;;1.67;0.63;;;;;;;;;;5081454;28;20019;-62
2021/03/25 17:25:00;;;;;;;1.80;0.50;;;;;;;;;;5079837;28;20524;-62
2021/03/25 17:27:27;;;;;;;3.95;0.88;;;;;;;;;;5079352;28;20016;-64
2021/03/25 17:29:53;;;;;;;0.20;0.20;;;;;;;;;;5081733;28;20054;-62
2021/03/25 17:32:19;;;;;;;1.55;0.30;;;;;;;;;;5087713;28;20807;-62
2021/03/25 17:34:47;;;;;;;3.40;0.20;;;;;;;;;;5085563;28;20028;-61
2021/03/25 17:37:13;;;;;;;0.25;0.25;;;;;;;;;;5086581;28;20078;-63
2021/03/25 17:39:39;;;;;;;1.27;0.40;;;;;;;;;;5085090;28;20052;-62
2021/03/25 17:42:05;;;;;;;1.75;0.35;;;;;;;;;;5085144;28;20071;-63
2021/03/25 17:44:32;;;;;;;0.30;0.30;;;;;;;;;;5086089;28;20036;-63
2021/03/25 17:46:58;;;;;;;0.45;0.35;;;;;;;;;;5085089;28;20024;-62
2021/03/25 17:49:24;;;;;;;0.82;0.63;;;;;;;;;;5084860;28;20106;-63
2021/03/25 17:51:50;;;;;;;11.93;1.50;;;;;;;;;;5085593;28;20502;-62
2021/03/25 17:54:16;;;;;;;3.97;0.80;;;;;;;;;;5088045;28;20310;-62
2021/03/25 17:56:43;;;;;;;0.43;0.20;;;;;;;;;;5086046;28;20371;-62
2021/03/25 17:59:09;;;;;;;0.40;0.30;;;;;;;;;;5084985;28;20131;-62
2021/03/25 18:01:35;;;;;;;0.10;0.10;;;;;;;;;;5085788;28;20066;-62
2021/03/25 18:04:02;;;;;;;0.20;0.20;;;;;;;;;;5084185;28;20036;-63
2021/03/25 18:06:28;;;;;;;0.10;0.10;;;;;;;;;;5077963;28;20051;-63
2021/03/25 18:08:55;;;;;;;2.20;0.30;;;;;;;;;;5088271;28;20497;-62
2021/03/25 18:11:21;;;;;;;1.38;0.70;;;;;;;;;;5085826;28;20031;-62
2021/03/25 18:13:47;;;;;;;4.55;0.50;;;;;;;;;;5084765;28;20020;-62
2021/03/25 18:16:16;;;;;;;3.15;0.60;;;;;;;;;;5083424;28;20165;-63
2021/03/25 18:18:42;;;;;;;0.60;0.50;;;;;;;;;;5083463;28;20043;-62
2021/03/25 18:21:16;;;;;;;1.65;0.25;;;;;;;;;;5083180;28;20031;-62
2021/03/25 18:23:42;;;;;;;0.10;0.10;;;;;;;;;;5084908;28;20414;-62
2021/03/25 18:26:09;;;;;;;0.17;0.15;;;;;;;;;;5084886;28;20043;-62
2021/03/25 18:28:35;;;;;;;0.25;0.25;;;;;;;;;;5083728;28;20382;-62
2021/03/25 18:31:02;;;;;;;0.10;0.10;;;;;;;;;;5079293;28;20031;-63
2021/03/25 18:33:29;;;;;;;0.85;0.73;;;;;;;;;;5087633;28;20400;-63
2021/03/25 18:35:57;;;;;;;0.10;0.10;;;;;;;;;;5090829;28;20032;-62
2021/03/25 18:38:25;;;;;;;0.20;0.20;;;;;;;;;;5086297;28;20578;-62
2021/03/25 18:40:52;;;;;;;1.92;0.57;;;;;;;;;;5086554;28;20024;-63
2021/03/25 18:43:19;;;;;;;0.10;0.10;;;;;;;;;;5086049;28;20413;-62
2021/03/25 18:45:47;;;;;;;0.10;0.10;;;;;;;;;;5084482;28;20020;-62
2021/03/25 18:48:14;;;;;;;0.10;0.10;;;;;;;;;;5079117;28;20032;-62
2021/03/25 18:50:41;;;;;;;0.10;0.10;;;;;;;;;;5088331;28;20032;-62
2021/03/25 18:53:09;;;;;;;0.10;0.10;;;;;;;;;;5087708;28;20036;-62
2021/03/25 18:55:36;;;;;;;3.10;0.88;;;;;;;;;;5086928;28;20524;-62
2021/03/25 18:58:02;;;;;;;0.10;0.10;;;;;;;;;;5090550;28;20063;-62
2021/03/25 19:00:30;;;;;;;0.15;0.13;;;;;;;;;;5090584;28;20414;-62
2021/03/25 19:02:56;;;;;;;0.13;0.13;;;;;;;;;;5092361;28;20028;-62
2021/03/25 19:05:23;;;;;;;2.28;1.02;;;;;;;;;;5087155;28;20107;-62
2021/03/25 19:07:51;;;;;;;0.13;0.10;;;;;;;;;;5086916;28;20028;-61
2021/03/25 19:10:18;;;;;;;0.80;0.35;;;;;;;;;;5091098;28;20020;-62
2021/03/25 19:12:45;;;;;;;0.10;0.10;;;;;;;;;;5090469;28;20024;-62
2021/03/25 19:15:13;;;;;;;0.10;0.10;;;;;;;;;;5093078;28;20056;-62
2021/03/25 19:17:40;;;;;;;0.10;0.10;;;;;;;;;;5091605;28;20493;-62
2021/03/25 19:20:06;;;;;;;0.10;0.10;;;;;;;;;;5090145;28;20115;-62
2021/03/25 19:22:32;;;;;;;0.13;0.13;;;;;;;;;;5085637;28;20524;-62
2021/03/25 19:24:58;;;;;;;0.10;0.10;;;;;;;;;;5082947;28;20514;-61
2021/03/25 19:27:24;;;;;;;0.10;0.10;;;;;;;;;;5081819;28;20449;-62
2021/03/25 19:29:50;;;;;;;0.20;0.20;;;;;;;;;;5086069;28;20032;-62
2021/03/25 19:32:17;;;;;;;1.77;0.35;;;;;;;;;;5084130;28;20032;-61
2021/03/25 19:34:43;;;;;;;0.10;0.10;;;;;;;;;;5088819;28;20028;-61
2021/03/25 19:37:09;;;;;;;0.38;0.38;;;;;;;;;;5085694;28;20028;-62
2021/03/25 19:39:35;;;;;;;0.20;0.20;;;;;;;;;;5084120;28;20047;-62
2021/03/25 19:42:02;;;;;;;0.30;0.30;;;;;;;;;;5087350;28;20035;-62
2021/03/25 19:44:28;;;;;;;0.20;0.20;;;;;;;;;;5083483;28;20032;-62
2021/03/25 19:46:54;;;;;;;0.38;0.38;;;;;;;;;;5081344;28;20032;-62
2021/03/25 19:49:22;;;;;;;0.10;0.10;;;;;;;;;;5081661;28;20397;-62
2021/03/25 19:51:52;;;;;;;0.10;0.10;;;;;;;;;;5084213;28;20028;-62
2021/03/25 19:54:21;;;;;;;0.20;0.20;;;;;;;;;;5084373;28;20039;-62
2021/03/25 19:56:51;;;;;;;0.20;0.20;;;;;;;;;;5085849;28;20031;-62
2021/03/25 19:59:17;;;;;;;1.38;0.60;;;;;;;;;;5085216;28;20502;-62
2021/03/25 20:01:43;;;;;;;0.20;0.20;;;;;;;;;;5082439;28;20020;-62
2021/03/25 20:04:10;;;;;;;0.80;0.40;;;;;;;;;;5085345;28;20046;-62
2021/03/25 20:06:37;;;;;;;0.13;0.13;;;;;;;;;;5087214;28;20402;-62
2021/03/25 20:09:04;;;;;;;0.73;0.70;;;;;;;;;;5085556;28;20069;-62
2021/03/25 20:11:31;;;;;;;0.10;0.10;;;;;;;;;;5087572;28;20107;-62
2021/03/25 20:13:57;;;;;;;0.73;0.73;;;;;;;;;;5087939;28;20075;-62
2021/03/25 20:16:23;;;;;;;0.30;0.30;;;;;;;;;;5085808;28;20672;-62
2021/03/25 20:18:49;;;;;;;0.20;0.20;;;;;;;;;;5073284;28;20037;-63
2021/03/25 20:21:19;;;;;;;2.40;1.38;;;;;;;;;;5083730;28;20028;-63
2021/03/25 20:23:45;;;;;;;1.50;1.02;;;;;;;;;;5087340;28;20059;-62
2021/03/25 20:26:12;;;;;;;0.10;0.10;;;;;;;;;;5084077;28;20027;-62
2021/03/25 20:28:38;;;;;;;0.10;0.10;;;;;;;;;;5086547;28;20032;-62
2021/03/25 20:31:05;;;;;;;0.20;0.20;;;;;;;;;;5087138;28;20115;-61
2021/03/25 20:33:32;;;;;;;0.08;0.08;;;;;;;;;;5070789;28;20028;-62
2021/03/25 20:35:59;;;;;;;1.15;0.50;;;;;;;;;;5084996;28;20669;-62
2021/03/25 20:38:25;;;;;;;0.43;0.38;;;;;;;;;;5086253;28;20024;-62
2021/03/25 20:40:53;;;;;;;0.10;0.10;;;;;;;;;;5086661;28;20511;-62
2021/03/25 20:43:21;;;;;;;0.10;0.10;;;;;;;;;;5086160;28;20096;-62
2021/03/25 20:45:47;;;;;;;15.93;1.33;;;;;;;;;;5086770;28;20095;-62
2021/03/25 20:48:14;;;;;;;0.55;0.50;;;;;;;;;;5088968;28;20045;-62
2021/03/25 20:50:41;;;;;;;0.90;0.90;;;;;;;;;;5087314;28;20044;-62
2021/03/25 20:53:07;;;;;;;0.30;0.30;;;;;;;;;;5082190;28;20419;-62
2021/03/25 20:55:35;;;;;;;0.47;0.47;;;;;;;;;;5080594;28;20488;-62